sensor_id;sensor_type;location;lat;lon;timestamp;pressure;altitude;pressure_sealevel;temperature;humidity
67697;BME280;54486;51.442;6.778;2023-09-12T00:02:17;101007.22;;;21.13;100.00
67697;BME280;54486;51.442;6.778;2023-09-12T00:04:44;101012.66;;;21.10;100.00
67697;BME280;54486;51.442;6.778;2023-09-12T00:07:11;101010.97;;;21.09;100.00
67697;BME280;54486;51.442;6.778;2023-09-12T00:09:38;101013.78;;;21.04;100.00
67697;BME280;54486;51.442;6.778;2023-09-12T00:12:06;101028.84;;;21.04;100.00
67697;BME280;54486;51.442;6.778;2023-09-12T00:14:33;101026.31;;;21.01;100.00
67697;BME280;54486;51.442;6.778;2023-09-12T00:17:00;101016.63;;;21.00;100.00
67697;BME280;54486;51.442;6.778;2023-09-12T00:19:27;101022.75;;;21.02;100.00
67697;BME280;54486;51.442;6.778;2023-09-12T00:21:54;101061.75;;;21.00;100.00
67697;BME280;54486;51.442;6.778;2023-09-12T00:24:22;101096.25;;;21.00;100.00
67697;BME280;54486;51.442;6.778;2023-09-12T00:26:49;101127.94;;;21.03;100.00
67697;BME280;54486;51.442;6.778;2023-09-12T00:29:16;101096.81;;;21.06;100.00
67697;BME280;54486;51.442;6.778;2023-09-12T00:31:43;100950.69;;;21.11;100.00
67697;BME280;54486;51.442;6.778;2023-09-12T00:34:15;100916.75;;;21.18;100.00
67697;BME280;54486;51.442;6.778;2023-09-12T00:36:43;100886.84;;;21.14;100.00
67697;BME280;54486;51.442;6.778;2023-09-12T00:39:10;100892.88;;;20.99;100.00
67697;BME280;54486;51.442;6.778;2023-09-12T00:41:37;100918.19;;;20.87;100.00
67697;BME280;54486;51.442;6.778;2023-09-12T00:44:04;100941.78;;;20.75;100.00
67697;BME280;54486;51.442;6.778;2023-09-12T00:46:32;100943.84;;;20.49;100.00
67697;BME280;54486;51.442;6.778;2023-09-12T00:49:02;100943.34;;;20.41;100.00
67697;BME280;54486;51.442;6.778;2023-09-12T00:51:32;100950.34;;;20.42;100.00
67697;BME280;54486;51.442;6.778;2023-09-12T00:54:00;100974.34;;;20.39;100.00
67697;BME280;54486;51.442;6.778;2023-09-12T00:56:28;100980.88;;;20.32;100.00
67697;BME280;54486;51.442;6.778;2023-09-12T00:58:56;100986.19;;;20.32;100.00
67697;BME280;54486;51.442;6.778;2023-09-12T01:01:23;100992.59;;;20.27;100.00
67697;BME280;54486;51.442;6.778;2023-09-12T01:03:51;100990.13;;;20.22;100.00
67697;BME280;54486;51.442;6.778;2023-09-12T01:06:21;100989.25;;;20.22;100.00
67697;BME280;54486;51.442;6.778;2023-09-12T01:08:50;100982.16;;;20.22;100.00
67697;BME280;54486;51.442;6.778;2023-09-12T01:11:17;100983.09;;;20.21;100.00
67697;BME280;54486;51.442;6.778;2023-09-12T01:13:45;100989.31;;;20.20;100.00
67697;BME280;54486;51.442;6.778;2023-09-12T01:16:11;100988.53;;;20.18;100.00
67697;BME280;54486;51.442;6.778;2023-09-12T01:18:38;100983.34;;;20.15;100.00
67697;BME280;54486;51.442;6.778;2023-09-12T01:21:31;100994.09;;;20.12;100.00
67697;BME280;54486;51.442;6.778;2023-09-12T01:24:31;100997.66;;;20.11;100.00
67697;BME280;54486;51.442;6.778;2023-09-12T01:27:26;100972.75;;;20.15;100.00
67697;BME280;54486;51.442;6.778;2023-09-12T01:29:57;100963.88;;;20.16;100.00
67697;BME280;54486;51.442;6.778;2023-09-12T01:32:24;100962.16;;;20.15;100.00
67697;BME280;54486;51.442;6.778;2023-09-12T01:34:51;100987.19;;;20.08;100.00
67697;BME280;54486;51.442;6.778;2023-09-12T01:37:18;100990.97;;;20.02;100.00
67697;BME280;54486;51.442;6.778;2023-09-12T01:39:46;100985.72;;;20.01;100.00
67697;BME280;54486;51.442;6.778;2023-09-12T01:42:21;100989.06;;;20.06;100.00
67697;BME280;54486;51.442;6.778;2023-09-12T01:44:55;100992.50;;;20.08;100.00
67697;BME280;54486;51.442;6.778;2023-09-12T01:47:24;100989.72;;;20.11;100.00
67697;BME280;54486;51.442;6.778;2023-09-12T01:49:55;100981.63;;;20.14;100.00
67697;BME280;54486;51.442;6.778;2023-09-12T01:52:24;100951.56;;;20.15;100.00
67697;BME280;54486;51.442;6.778;2023-09-12T01:54:52;100926.78;;;20.16;100.00
67697;BME280;54486;51.442;6.778;2023-09-12T01:57:20;100933.88;;;20.16;100.00
67697;BME280;54486;51.442;6.778;2023-09-12T01:59:48;100959.81;;;20.07;100.00
67697;BME280;54486;51.442;6.778;2023-09-12T02:02:16;100955.81;;;19.99;100.00
67697;BME280;54486;51.442;6.778;2023-09-12T02:04:54;100953.03;;;20.02;100.00
67697;BME280;54486;51.442;6.778;2023-09-12T02:07:29;100964.25;;;20.07;100.00
67697;BME280;54486;51.442;6.778;2023-09-12T02:09:59;100962.97;;;19.97;100.00
67697;BME280;54486;51.442;6.778;2023-09-12T02:12:27;100948.63;;;20.01;100.00
67697;BME280;54486;51.442;6.778;2023-09-12T02:14:54;100939.91;;;19.99;100.00
67697;BME280;54486;51.442;6.778;2023-09-12T02:17:22;100955.66;;;20.02;100.00
67697;BME280;54486;51.442;6.778;2023-09-12T02:19:49;100982.44;;;19.96;100.00
67697;BME280;54486;51.442;6.778;2023-09-12T02:22:16;100986.13;;;19.92;100.00
67697;BME280;54486;51.442;6.778;2023-09-12T02:24:43;100966.53;;;19.96;100.00
67697;BME280;54486;51.442;6.778;2023-09-12T02:27:10;100966.41;;;19.99;100.00
67697;BME280;54486;51.442;6.778;2023-09-12T02:29:41;100985.13;;;19.94;100.00
67697;BME280;54486;51.442;6.778;2023-09-12T02:32:09;100982.69;;;19.90;100.00
67697;BME280;54486;51.442;6.778;2023-09-12T02:34:36;100970.31;;;19.90;100.00
67697;BME280;54486;51.442;6.778;2023-09-12T02:37:03;100968.53;;;19.91;100.00
67697;BME280;54486;51.442;6.778;2023-09-12T02:39:30;100999.19;;;19.96;100.00
67697;BME280;54486;51.442;6.778;2023-09-12T02:41:57;101035.91;;;19.84;100.00
67697;BME280;54486;51.442;6.778;2023-09-12T02:44:24;101035.66;;;19.90;100.00
67697;BME280;54486;51.442;6.778;2023-09-12T02:46:51;101007.19;;;19.95;100.00
67697;BME280;54486;51.442;6.778;2023-09-12T02:49:18;100987.47;;;20.02;100.00
67697;BME280;54486;51.442;6.778;2023-09-12T02:51:46;100954.75;;;20.03;100.00
67697;BME280;54486;51.442;6.778;2023-09-12T02:54:13;100942.41;;;20.02;100.00
67697;BME280;54486;51.442;6.778;2023-09-12T02:56:40;100946.94;;;20.00;100.00
67697;BME280;54486;51.442;6.778;2023-09-12T02:59:07;100948.63;;;20.01;100.00
67697;BME280;54486;51.442;6.778;2023-09-12T03:01:35;100956.44;;;20.04;100.00
67697;BME280;54486;51.442;6.778;2023-09-12T03:04:02;100957.31;;;20.04;100.00
67697;BME280;54486;51.442;6.778;2023-09-12T03:06:30;100946.94;;;20.00;100.00
67697;BME280;54486;51.442;6.778;2023-09-12T03:08:57;100959.31;;;19.99;100.00
67697;BME280;54486;51.442;6.778;2023-09-12T03:11:27;100953.09;;;20.00;100.00
67697;BME280;54486;51.442;6.778;2023-09-12T03:13:57;100947.91;;;19.97;100.00
67697;BME280;54486;51.442;6.778;2023-09-12T03:16:23;100948.91;;;19.95;100.00
67697;BME280;54486;51.442;6.778;2023-09-12T03:18:51;100941.09;;;19.92;100.00
67697;BME280;54486;51.442;6.778;2023-09-12T03:21:18;100936.75;;;19.91;100.00
67697;BME280;54486;51.442;6.778;2023-09-12T03:23:45;100933.28;;;19.89;100.00
67697;BME280;54486;51.442;6.778;2023-09-12T03:26:14;100929.72;;;19.90;100.00
67697;BME280;54486;51.442;6.778;2023-09-12T03:28:40;100927.97;;;19.89;100.00
67697;BME280;54486;51.442;6.778;2023-09-12T03:31:10;100920.13;;;19.87;100.00
67697;BME280;54486;51.442;6.778;2023-09-12T03:33:42;100917.00;;;19.78;100.00
67697;BME280;54486;51.442;6.778;2023-09-12T03:36:09;100917.94;;;19.77;100.00
67697;BME280;54486;51.442;6.778;2023-09-12T03:38:36;100920.44;;;19.80;100.00
67697;BME280;54486;51.442;6.778;2023-09-12T03:41:04;100923.09;;;19.80;100.00
67697;BME280;54486;51.442;6.778;2023-09-12T03:43:33;100906.28;;;19.81;100.00
67697;BME280;54486;51.442;6.778;2023-09-12T03:46:00;100901.00;;;19.81;100.00
67697;BME280;54486;51.442;6.778;2023-09-12T03:48:27;100893.09;;;19.79;100.00
67697;BME280;54486;51.442;6.778;2023-09-12T03:50:57;100889.72;;;19.76;100.00
67697;BME280;54486;51.442;6.778;2023-09-12T03:53:24;100881.00;;;19.74;100.00
67697;BME280;54486;51.442;6.778;2023-09-12T03:55:51;100877.44;;;19.75;100.00
67697;BME280;54486;51.442;6.778;2023-09-12T03:58:18;100872.13;;;19.75;100.00
67697;BME280;54486;51.442;6.778;2023-09-12T04:00:45;100859.03;;;19.72;100.00
67697;BME280;54486;51.442;6.778;2023-09-12T04:03:13;100862.59;;;19.71;100.00
67697;BME280;54486;51.442;6.778;2023-09-12T04:05:43;100863.63;;;19.67;100.00
67697;BME280;54486;51.442;6.778;2023-09-12T04:08:10;100874.22;;;19.67;100.00
67697;BME280;54486;51.442;6.778;2023-09-12T04:10:37;100876.22;;;19.62;100.00
67697;BME280;54486;51.442;6.778;2023-09-12T04:13:04;100876.38;;;19.59;100.00
67697;BME280;54486;51.442;6.778;2023-09-12T04:15:31;100869.34;;;19.58;100.00
67697;BME280;54486;51.442;6.778;2023-09-12T04:17:58;100869.19;;;19.61;100.00
67697;BME280;54486;51.442;6.778;2023-09-12T04:20:25;100868.19;;;19.63;100.00
67697;BME280;54486;51.442;6.778;2023-09-12T04:22:53;100869.03;;;19.65;100.00
67697;BME280;54486;51.442;6.778;2023-09-12T04:25:20;100868.94;;;19.67;100.00
67697;BME280;54486;51.442;6.778;2023-09-12T04:27:47;100879.75;;;19.62;100.00
67697;BME280;54486;51.442;6.778;2023-09-12T04:30:14;100878.78;;;19.63;100.00
67697;BME280;54486;51.442;6.778;2023-09-12T04:32:42;100865.50;;;19.65;100.00
67697;BME280;54486;51.442;6.778;2023-09-12T04:35:09;100879.66;;;19.64;100.00
67697;BME280;54486;51.442;6.778;2023-09-12T04:37:35;100881.66;;;19.59;100.00
67697;BME280;54486;51.442;6.778;2023-09-12T04:40:03;100885.22;;;19.58;100.00
67697;BME280;54486;51.442;6.778;2023-09-12T04:42:32;100885.34;;;19.54;100.00
67697;BME280;54486;51.442;6.778;2023-09-12T04:45:00;100902.97;;;19.56;100.00
67697;BME280;54486;51.442;6.778;2023-09-12T04:47:27;100909.81;;;19.60;100.00
67697;BME280;54486;51.442;6.778;2023-09-12T04:49:54;100922.03;;;19.64;100.00
67697;BME280;54486;51.442;6.778;2023-09-12T04:52:20;100914.84;;;19.66;100.00
67697;BME280;54486;51.442;6.778;2023-09-12T04:54:48;100908.53;;;19.70;100.00
67697;BME280;54486;51.442;6.778;2023-09-12T04:57:15;100916.31;;;19.73;100.00
67697;BME280;54486;51.442;6.778;2023-09-12T04:59:42;100909.19;;;19.75;100.00
67697;BME280;54486;51.442;6.778;2023-09-12T05:02:09;100916.06;;;19.79;100.00
67697;BME280;54486;51.442;6.778;2023-09-12T05:04:36;100919.53;;;19.81;100.00
67697;BME280;54486;51.442;6.778;2023-09-12T05:07:03;100918.84;;;19.76;100.00
67697;BME280;54486;51.442;6.778;2023-09-12T05:09:30;100916.31;;;19.73;100.00
67697;BME280;54486;51.442;6.778;2023-09-12T05:11:58;100910.91;;;19.76;100.00
67697;BME280;54486;51.442;6.778;2023-09-12T05:14:25;100909.06;;;19.78;100.00
67697;BME280;54486;51.442;6.778;2023-09-12T05:16:53;100917.66;;;19.83;100.00
67697;BME280;54486;51.442;6.778;2023-09-12T05:19:21;100918.44;;;19.85;100.00
67697;BME280;54486;51.442;6.778;2023-09-12T05:21:48;100915.66;;;19.88;100.00
67697;BME280;54486;51.442;6.778;2023-09-12T05:24:15;100918.22;;;19.91;100.00
67697;BME280;54486;51.442;6.778;2023-09-12T05:26:42;100922.56;;;19.92;100.00
67697;BME280;54486;51.442;6.778;2023-09-12T05:29:10;100937.84;;;19.85;100.00
67697;BME280;54486;51.442;6.778;2023-09-12T05:31:37;100957.38;;;19.83;100.00
67697;BME280;54486;51.442;6.778;2023-09-12T05:34:04;100952.88;;;19.85;100.00
67697;BME280;54486;51.442;6.778;2023-09-12T05:36:31;100958.16;;;19.85;100.00
67697;BME280;54486;51.442;6.778;2023-09-12T05:38:59;100973.09;;;19.87;100.00
67697;BME280;54486;51.442;6.778;2023-09-12T05:41:26;100964.03;;;19.93;100.00
67697;BME280;54486;51.442;6.778;2023-09-12T05:43:53;100962.03;;;19.98;100.00
67697;BME280;54486;51.442;6.778;2023-09-12T05:46:19;100972.44;;;20.02;100.00
67697;BME280;54486;51.442;6.778;2023-09-12T05:48:47;100982.94;;;20.04;100.00
67697;BME280;54486;51.442;6.778;2023-09-12T05:51:14;100981.91;;;20.08;100.00
67697;BME280;54486;51.442;6.778;2023-09-12T05:53:41;100982.63;;;20.12;100.00
67697;BME280;54486;51.442;6.778;2023-09-12T05:56:08;100978.06;;;20.15;100.00
67697;BME280;54486;51.442;6.778;2023-09-12T05:58:35;100987.59;;;20.19;100.00
67697;BME280;54486;51.442;6.778;2023-09-12T06:01:02;100991.94;;;20.20;100.00
67697;BME280;54486;51.442;6.778;2023-09-12T06:03:29;101017.63;;;20.20;100.00
67697;BME280;54486;51.442;6.778;2023-09-12T06:05:56;101044.13;;;20.20;100.00
67697;BME280;54486;51.442;6.778;2023-09-12T06:08:23;101084.97;;;20.14;100.00
67697;BME280;54486;51.442;6.778;2023-09-12T06:10:51;101128.66;;;20.04;100.00
67697;BME280;54486;51.442;6.778;2023-09-12T06:13:20;101166.19;;;19.93;100.00
67697;BME280;54486;51.442;6.778;2023-09-12T06:15:47;101180.03;;;19.78;100.00
67697;BME280;54486;51.442;6.778;2023-09-12T06:18:15;101130.03;;;19.71;100.00
67697;BME280;54486;51.442;6.778;2023-09-12T06:20:43;101131.75;;;19.72;100.00
67697;BME280;54486;51.442;6.778;2023-09-12T06:23:10;101110.00;;;19.64;100.00
67697;BME280;54486;51.442;6.778;2023-09-12T06:25:37;101043.56;;;19.48;100.00
67697;BME280;54486;51.442;6.778;2023-09-12T06:28:05;100993.00;;;19.32;100.00
67697;BME280;54486;51.442;6.778;2023-09-12T06:30:33;100945.63;;;19.26;100.00
67697;BME280;54486;51.442;6.778;2023-09-12T06:33:00;100913.28;;;19.18;100.00
67697;BME280;54486;51.442;6.778;2023-09-12T06:35:27;100908.72;;;19.01;100.00
67697;BME280;54486;51.442;6.778;2023-09-12T06:37:54;100919.47;;;18.97;100.00
67697;BME280;54486;51.442;6.778;2023-09-12T06:40:23;100922.22;;;18.94;100.00
67697;BME280;54486;51.442;6.778;2023-09-12T06:42:50;100939.00;;;18.93;100.00
67697;BME280;54486;51.442;6.778;2023-09-12T06:45:17;100953.16;;;18.92;100.00
67697;BME280;54486;51.442;6.778;2023-09-12T06:47:44;100966.50;;;18.89;100.00
67697;BME280;54486;51.442;6.778;2023-09-12T06:50:11;100986.16;;;18.82;100.00
67697;BME280;54486;51.442;6.778;2023-09-12T06:52:41;100984.94;;;18.67;100.00
67697;BME280;54486;51.442;6.778;2023-09-12T06:55:08;100980.41;;;18.71;100.00
67697;BME280;54486;51.442;6.778;2023-09-12T06:57:36;100978.59;;;18.73;100.00
67697;BME280;54486;51.442;6.778;2023-09-12T07:00:04;101000.06;;;18.64;100.00
67697;BME280;54486;51.442;6.778;2023-09-12T07:02:34;101008.91;;;18.63;100.00
67697;BME280;54486;51.442;6.778;2023-09-12T07:05:01;101014.09;;;18.66;100.00
67697;BME280;54486;51.442;6.778;2023-09-12T07:07:30;101022.13;;;18.63;100.00
67697;BME280;54486;51.442;6.778;2023-09-12T07:09:58;101012.34;;;18.65;100.00
67697;BME280;54486;51.442;6.778;2023-09-12T07:12:46;101019.25;;;18.69;100.00
67697;BME280;54486;51.442;6.778;2023-09-12T07:15:14;101019.16;;;18.72;100.00
67697;BME280;54486;51.442;6.778;2023-09-12T07:17:41;101018.25;;;18.73;100.00
67697;BME280;54486;51.442;6.778;2023-09-12T07:20:08;101013.63;;;18.78;100.00
67697;BME280;54486;51.442;6.778;2023-09-12T07:22:39;101013.41;;;18.84;100.00
67697;BME280;54486;51.442;6.778;2023-09-12T07:25:07;101001.72;;;18.89;100.00
67697;BME280;54486;51.442;6.778;2023-09-12T07:27:36;101005.13;;;18.93;100.00
67697;BME280;54486;51.442;6.778;2023-09-12T07:30:05;100998.91;;;18.94;100.00
67697;BME280;54486;51.442;6.778;2023-09-12T07:32:33;101001.47;;;18.95;100.00
67697;BME280;54486;51.442;6.778;2023-09-12T07:35:00;100984.66;;;18.98;100.00
67697;BME280;54486;51.442;6.778;2023-09-12T07:37:27;100975.53;;;19.05;100.00
67697;BME280;54486;51.442;6.778;2023-09-12T07:39:55;100969.91;;;19.14;100.00
67697;BME280;54486;51.442;6.778;2023-09-12T07:42:23;100974.03;;;19.21;100.00
67697;BME280;54486;51.442;6.778;2023-09-12T07:44:51;100958.88;;;19.25;100.00
67697;BME280;54486;51.442;6.778;2023-09-12T07:47:18;100967.31;;;19.34;100.00
67697;BME280;54486;51.442;6.778;2023-09-12T07:49:52;100963.53;;;19.41;100.00
67697;BME280;54486;51.442;6.778;2023-09-12T07:52:20;100956.38;;;19.43;100.00
67697;BME280;54486;51.442;6.778;2023-09-12T07:54:49;100965.16;;;19.45;100.00
67697;BME280;54486;51.442;6.778;2023-09-12T07:57:17;100970.94;;;19.55;100.00
67697;BME280;54486;51.442;6.778;2023-09-12T07:59:44;100971.53;;;19.62;100.00
67697;BME280;54486;51.442;6.778;2023-09-12T08:02:11;100976.56;;;19.68;100.00
67697;BME280;54486;51.442;6.778;2023-09-12T08:04:39;100988.63;;;19.75;100.00
67697;BME280;54486;51.442;6.778;2023-09-12T08:07:07;100984.91;;;19.79;100.00
67697;BME280;54486;51.442;6.778;2023-09-12T08:09:54;100977.66;;;19.84;100.00
67697;BME280;54486;51.442;6.778;2023-09-12T08:12:23;100978.38;;;19.87;100.00
67697;BME280;54486;51.442;6.778;2023-09-12T08:14:51;100974.34;;;19.99;100.00
67697;BME280;54486;51.442;6.778;2023-09-12T08:17:18;100970.38;;;20.09;100.00
67697;BME280;54486;51.442;6.778;2023-09-12T08:19:46;100977.78;;;20.21;100.00
67697;BME280;54486;51.442;6.778;2023-09-12T08:22:13;100977.41;;;20.30;100.00
67697;BME280;54486;51.442;6.778;2023-09-12T08:24:40;100979.66;;;20.39;100.00
67697;BME280;54486;51.442;6.778;2023-09-12T08:27:07;100982.88;;;20.46;100.00
67697;BME280;54486;51.442;6.778;2023-09-12T08:29:36;100982.16;;;20.42;100.00
67697;BME280;54486;51.442;6.778;2023-09-12T08:32:04;100980.97;;;20.49;100.00
67697;BME280;54486;51.442;6.778;2023-09-12T08:34:31;100980.53;;;20.58;100.00
67697;BME280;54486;51.442;6.778;2023-09-12T08:36:59;100982.66;;;20.71;100.00
67697;BME280;54486;51.442;6.778;2023-09-12T08:39:27;100988.31;;;20.82;100.00
67697;BME280;54486;51.442;6.778;2023-09-12T08:41:55;100997.72;;;20.89;100.00
67697;BME280;54486;51.442;6.778;2023-09-12T08:44:22;101006.75;;;21.03;100.00
67697;BME280;54486;51.442;6.778;2023-09-12T08:46:49;101006.28;;;21.14;100.00
67697;BME280;54486;51.442;6.778;2023-09-12T08:49:16;101017.97;;;21.10;100.00
67697;BME280;54486;51.442;6.778;2023-09-12T08:51:44;101022.97;;;21.16;100.00
67697;BME280;54486;51.442;6.778;2023-09-12T08:54:12;101039.06;;;21.13;100.00
67697;BME280;54486;51.442;6.778;2023-09-12T08:56:40;101049.81;;;21.10;100.00
67697;BME280;54486;51.442;6.778;2023-09-12T08:59:10;101050.63;;;21.12;100.00
67697;BME280;54486;51.442;6.778;2023-09-12T09:01:37;101046.22;;;21.11;100.00
67697;BME280;54486;51.442;6.778;2023-09-12T09:04:06;101048.47;;;21.00;100.00
67697;BME280;54486;51.442;6.778;2023-09-12T09:06:35;101053.78;;;21.00;100.00
67697;BME280;54486;51.442;6.778;2023-09-12T09:09:06;101041.47;;;20.99;100.00
67697;BME280;54486;51.442;6.778;2023-09-12T09:11:36;101053.50;;;21.06;100.00
67697;BME280;54486;51.442;6.778;2023-09-12T09:14:03;101056.28;;;21.03;100.00
67697;BME280;54486;51.442;6.778;2023-09-12T09:16:31;101061.53;;;21.04;100.00
67697;BME280;54486;51.442;6.778;2023-09-12T09:19:03;101054.50;;;21.03;100.00
67697;BME280;54486;51.442;6.778;2023-09-12T09:21:37;101055.22;;;21.07;100.00
67697;BME280;54486;51.442;6.778;2023-09-12T09:24:09;101055.13;;;21.10;100.00
67697;BME280;54486;51.442;6.778;2023-09-12T09:26:50;101055.47;;;21.02;100.00
67697;BME280;54486;51.442;6.778;2023-09-12T09:29:19;101062.41;;;21.05;100.00
67697;BME280;54486;51.442;6.778;2023-09-12T09:31:51;101062.66;;;21.19;100.00
67697;BME280;54486;51.442;6.778;2023-09-12T09:34:19;101066.31;;;21.35;100.00
67697;BME280;54486;51.442;6.778;2023-09-12T09:36:52;101061.69;;;21.57;100.00
67697;BME280;54486;51.442;6.778;2023-09-12T09:39:24;101056.28;;;21.78;100.00
67697;BME280;54486;51.442;6.778;2023-09-12T09:41:54;101059.78;;;21.97;100.00
67697;BME280;54486;51.442;6.778;2023-09-12T09:44:22;101066.38;;;22.07;100.00
67697;BME280;54486;51.442;6.778;2023-09-12T09:47:00;101065.91;;;22.16;100.00
67697;BME280;54486;51.442;6.778;2023-09-12T09:49:31;101060.28;;;22.22;100.00
67697;BME280;54486;51.442;6.778;2023-09-12T09:52:04;101068.09;;;22.25;100.00
67697;BME280;54486;51.442;6.778;2023-09-12T09:54:32;101062.00;;;22.23;100.00
67697;BME280;54486;51.442;6.778;2023-09-12T09:56:59;101060.97;;;22.26;100.00
67697;BME280;54486;51.442;6.778;2023-09-12T09:59:27;101064.56;;;22.25;100.00
67697;BME280;54486;51.442;6.778;2023-09-12T10:01:59;101062.56;;;22.30;100.00
67697;BME280;54486;51.442;6.778;2023-09-12T10:04:28;101048.28;;;22.31;100.00
67697;BME280;54486;51.442;6.778;2023-09-12T10:06:57;101049.00;;;22.34;100.00
67697;BME280;54486;51.442;6.778;2023-09-12T10:09:26;101047.75;;;22.41;100.00
67697;BME280;54486;51.442;6.778;2023-09-12T10:11:55;101050.94;;;22.48;100.00
67697;BME280;54486;51.442;6.778;2023-09-12T10:14:26;101050.25;;;22.44;100.00
67697;BME280;54486;51.442;6.778;2023-09-12T10:16:59;101064.78;;;22.37;100.00
67697;BME280;54486;51.442;6.778;2023-09-12T10:19:48;101058.38;;;22.24;100.00
67697;BME280;54486;51.442;6.778;2023-09-12T10:22:25;101050.97;;;22.13;100.00
67697;BME280;54486;51.442;6.778;2023-09-12T10:24:56;101050.25;;;22.10;100.00
67697;BME280;54486;51.442;6.778;2023-09-12T10:27:24;101046.97;;;22.05;100.00
67697;BME280;54486;51.442;6.778;2023-09-12T10:29:52;101042.34;;;22.08;100.00
67697;BME280;54486;51.442;6.778;2023-09-12T10:32:21;101042.59;;;22.04;100.00
67697;BME280;54486;51.442;6.778;2023-09-12T10:34:49;101047.97;;;22.02;100.00
67697;BME280;54486;51.442;6.778;2023-09-12T10:37:19;101049.94;;;21.99;100.00
67697;BME280;54486;51.442;6.778;2023-09-12T10:39:49;101038.53;;;21.97;100.00
67697;BME280;54486;51.442;6.778;2023-09-12T10:42:16;101044.56;;;22.00;100.00
67697;BME280;54486;51.442;6.778;2023-09-12T10:44:45;101051.34;;;22.06;100.00
67697;BME280;54486;51.442;6.778;2023-09-12T10:47:13;101040.72;;;22.06;100.00
67697;BME280;54486;51.442;6.778;2023-09-12T10:49:43;101041.81;;;22.02;100.00
67697;BME280;54486;51.442;6.778;2023-09-12T10:52:23;101045.25;;;22.04;100.00
67697;BME280;54486;51.442;6.778;2023-09-12T10:54:51;101043.22;;;22.09;100.00
67697;BME280;54486;51.442;6.778;2023-09-12T10:57:20;101039.16;;;22.19;100.00
67697;BME280;54486;51.442;6.778;2023-09-12T11:02:29;101036.34;;;22.39;100.00
67697;BME280;54486;51.442;6.778;2023-09-12T11:05:02;101030.88;;;22.42;100.00
67697;BME280;54486;51.442;6.778;2023-09-12T11:12:50;101024.81;;;22.73;100.00
67697;BME280;54486;51.442;6.778;2023-09-12T11:15:23;101028.75;;;22.82;100.00
67697;BME280;54486;51.442;6.778;2023-09-12T11:18:02;101027.31;;;22.92;96.30
67697;BME280;54486;51.442;6.778;2023-09-12T11:20:50;101018.00;;;23.16;93.59
67697;BME280;54486;51.442;6.778;2023-09-12T11:23:19;101016.97;;;23.34;95.74
67697;BME280;54486;51.442;6.778;2023-09-12T11:25:47;101022.50;;;23.47;95.49
67697;BME280;54486;51.442;6.778;2023-09-12T11:28:14;101016.31;;;23.46;94.21
67697;BME280;54486;51.442;6.778;2023-09-12T11:31:02;101022.28;;;23.34;87.44
67697;BME280;54486;51.442;6.778;2023-09-12T11:33:32;101019.03;;;23.29;91.08
67697;BME280;54486;51.442;6.778;2023-09-12T11:36:01;101019.69;;;23.33;94.85
67697;BME280;54486;51.442;6.778;2023-09-12T11:38:31;101020.22;;;23.39;99.74
67697;BME280;54486;51.442;6.778;2023-09-12T11:40:59;101023.00;;;23.38;97.86
67697;BME280;54486;51.442;6.778;2023-09-12T11:43:28;101024.03;;;23.35;98.30
67697;BME280;54486;51.442;6.778;2023-09-12T11:45:56;101024.19;;;23.32;95.91
67697;BME280;54486;51.442;6.778;2023-09-12T11:48:24;101023.34;;;23.32;96.82
67697;BME280;54486;51.442;6.778;2023-09-12T11:50:56;101019.53;;;23.36;96.33
67697;BME280;54486;51.442;6.778;2023-09-12T11:53:28;101014.91;;;23.39;97.61
67697;BME280;54486;51.442;6.778;2023-09-12T11:55:58;101019.91;;;23.45;96.35
67697;BME280;54486;51.442;6.778;2023-09-12T11:58:27;101026.44;;;23.55;93.75
67697;BME280;54486;51.442;6.778;2023-09-12T12:00:58;101020.75;;;23.61;92.78
67697;BME280;54486;51.442;6.778;2023-09-12T12:03:27;101022.47;;;23.62;95.62
67697;BME280;54486;51.442;6.778;2023-09-12T12:05:56;101026.19;;;23.60;93.94
67697;BME280;54486;51.442;6.778;2023-09-12T12:08:24;101022.31;;;23.65;94.11
67697;BME280;54486;51.442;6.778;2023-09-12T12:10:58;101018.69;;;23.66;91.21
67697;BME280;54486;51.442;6.778;2023-09-12T12:13:36;101005.38;;;23.66;92.12
67697;BME280;54486;51.442;6.778;2023-09-12T12:16:16;101013.00;;;23.73;90.29
67697;BME280;54486;51.442;6.778;2023-09-12T12:18:44;101013.72;;;23.60;85.09
67697;BME280;54486;51.442;6.778;2023-09-12T12:21:12;101021.44;;;23.65;86.39
67697;BME280;54486;51.442;6.778;2023-09-12T12:23:41;101019.09;;;23.75;89.74
67697;BME280;54486;51.442;6.778;2023-09-12T12:26:09;101017.63;;;23.85;88.35
67697;BME280;54486;51.442;6.778;2023-09-12T12:28:36;101023.38;;;23.93;90.07
67697;BME280;54486;51.442;6.778;2023-09-12T12:31:09;101020.34;;;23.99;88.93
67697;BME280;54486;51.442;6.778;2023-09-12T12:33:36;101024.94;;;24.11;85.72
67697;BME280;54486;51.442;6.778;2023-09-12T12:36:24;101016.69;;;24.15;85.19
67697;BME280;54486;51.442;6.778;2023-09-12T12:38:52;101010.34;;;24.18;85.97
67697;BME280;54486;51.442;6.778;2023-09-12T12:41:27;101002.22;;;24.19;86.53
67697;BME280;54486;51.442;6.778;2023-09-12T12:44:09;101001.00;;;24.25;84.41
67697;BME280;54486;51.442;6.778;2023-09-12T12:46:52;100997.00;;;24.32;82.73
67697;BME280;54486;51.442;6.778;2023-09-12T12:49:23;100992.47;;;24.48;84.05
67697;BME280;54486;51.442;6.778;2023-09-12T12:51:52;100994.75;;;24.68;85.90
67697;BME280;54486;51.442;6.778;2023-09-12T12:54:21;100991.16;;;24.84;84.27
67697;BME280;54486;51.442;6.778;2023-09-12T12:56:48;100988.47;;;24.84;78.76
67697;BME280;54486;51.442;6.778;2023-09-12T12:59:16;100985.41;;;24.75;78.72